Time;durP1;ratioP1;P1;durP2;ratioP2;P2;SDS_P1;SDS_P2;PMS_P1;PMS_P2;Temp;Humidity;BMP_temperature;BMP_pressure;BME280_temperature;BME280_humidity;BME280_pressure;Samples;Min_cycle;Max_cycle;Signal;HPM_P1;HPM_P2
2021/09/16 00:01:25;;;;;;;9.13;7.65;;;563.90;1484.80;;;;;;5096184;28;20111;-63
2021/09/16 00:03:50;;;;;;;15.63;7.22;;;563.90;1510.40;;;;;;5096155;28;20471;-63
2021/09/16 00:06:16;;;;;;;16.20;6.88;;;563.90;1510.40;;;;;;5096136;28;20024;-63
2021/09/16 00:08:42;;;;;;;11.35;7.43;;;563.90;1484.80;;;;;;5095988;28;20020;-63
2021/09/16 00:11:08;;;;;;;14.55;8.75;;;563.90;1510.40;;;;;;5095582;28;20055;-63
2021/09/16 00:13:33;;;;;;;10.73;7.90;;;563.90;1484.80;;;;;;5095631;28;20042;-63
2021/09/16 00:15:59;;;;;;;19.10;8.50;;;563.90;1484.80;;;;;;5095658;28;20071;-64
2021/09/16 00:18:25;;;;;;;17.45;7.93;;;563.80;1484.80;;;;;;5096032;28;20024;-63
2021/09/16 00:20:50;;;;;;;12.60;7.75;;;563.80;1484.80;;;;;;5095749;28;20378;-63
2021/09/16 00:23:16;;;;;;;11.45;8.18;;;563.80;1510.40;;;;;;5095948;28;20028;-63
2021/09/16 00:25:42;;;;;;;13.98;7.35;;;563.80;1510.40;;;;;;5095626;28;20466;-63
2021/09/16 00:28:08;;;;;;;12.88;9.20;;;563.80;1510.40;;;;;;5096050;28;20031;-63
2021/09/16 00:30:34;;;;;;;19.65;10.18;;;563.70;1510.40;;;;;;5095522;28;20404;-63
2021/09/16 00:33:00;;;;;;;19.75;10.80;;;563.70;1510.40;;;;;;5093749;28;20043;-64
2021/09/16 00:35:26;;;;;;;14.50;10.38;;;563.70;1484.80;;;;;;5095454;28;20358;-64
2021/09/16 00:37:52;;;;;;;12.68;10.20;;;563.70;1510.40;;;;;;5095637;28;20021;-64
2021/09/16 00:40:18;;;;;;;16.95;11.50;;;563.60;1510.40;;;;;;5094905;28;20020;-64
2021/09/16 00:42:44;;;;;;;19.80;10.70;;;563.50;1510.40;;;;;;5093200;28;20089;-64
2021/09/16 00:45:11;;;;;;;17.02;11.00;;;563.50;1510.40;;;;;;5095234;28;20036;-64
2021/09/16 00:47:41;;;;;;;15.85;10.75;;;563.50;1510.40;;;;;;5095270;28;20125;-64
2021/09/16 00:50:08;;;;;;;17.88;11.23;;;563.40;1510.40;;;;;;5093598;28;20039;-64
2021/09/16 00:52:35;;;;;;;19.73;11.65;;;563.40;1510.40;;;;;;5095200;28;20051;-64
2021/09/16 00:55:01;;;;;;;15.93;10.40;;;563.30;1536.00;;;;;;5094847;28;20032;-64
2021/09/16 00:57:28;;;;;;;14.40;10.23;;;563.30;1536.00;;;;;;5094870;28;20024;-64
2021/09/16 00:59:54;;;;;;;15.70;10.60;;;563.20;1536.00;;;;;;5095160;28;20123;-64
2021/09/16 01:02:20;;;;;;;19.85;11.35;;;563.20;1536.00;;;;;;5094577;28;20024;-65
2021/09/16 01:04:46;;;;;;;12.32;10.40;;;563.30;1536.00;;;;;;5094991;28;20024;-65
2021/09/16 01:07:14;;;;;;;16.05;11.38;;;563.20;1536.00;;;;;;5094250;28;20078;-65
2021/09/16 01:09:42;;;;;;;21.23;10.80;;;563.20;1536.00;;;;;;5094798;28;20027;-66
2021/09/16 01:12:08;;;;;;;15.07;11.07;;;563.20;1536.00;;;;;;5094649;28;20024;-64
2021/09/16 01:14:34;;;;;;;22.65;10.73;;;563.20;1536.00;;;;;;5094471;28;20024;-64
2021/09/16 01:17:00;;;;;;;15.13;11.27;;;563.20;1536.00;;;;;;5094625;28;20035;-64
2021/09/16 01:19:26;;;;;;;18.45;10.48;;;563.20;1561.60;;;;;;5094910;28;20048;-65
2021/09/16 01:21:52;;;;;;;19.55;10.05;;;563.20;1536.00;;;;;;5094616;28;20085;-64
2021/09/16 01:24:19;;;;;;;17.80;11.50;;;538.50;1536.00;;;;;;5094655;28;20024;-65
2021/09/16 01:26:45;;;;;;;15.90;10.93;;;538.50;1536.00;;;;;;5094261;28;20031;-64
2021/09/16 01:29:12;;;;;;;16.23;10.25;;;538.50;1536.00;;;;;;5094627;28;20095;-64
2021/09/16 01:31:39;;;;;;;19.35;10.10;;;538.50;1536.00;;;;;;5094331;28;20111;-64
2021/09/16 01:34:06;;;;;;;17.73;10.65;;;538.50;1536.00;;;;;;5093068;28;20127;-64
2021/09/16 01:36:32;;;;;;;17.55;11.43;;;538.50;1536.00;;;;;;5094385;28;20032;-64
2021/09/16 01:38:59;;;;;;;21.08;11.13;;;538.50;1536.00;;;;;;5094361;28;20028;-64
2021/09/16 01:41:25;;;;;;;15.35;11.40;;;538.50;1536.00;;;;;;5094192;28;20024;-65
2021/09/16 01:43:51;;;;;;;22.08;13.18;;;538.50;1561.60;;;;;;5094524;28;20081;-65
2021/09/16 01:46:17;;;;;;;15.55;10.82;;;538.50;1536.00;;;;;;5094250;28;20024;-64
2021/09/16 01:48:43;;;;;;;19.10;11.40;;;538.50;1536.00;;;;;;5094247;28;20104;-64
2021/09/16 01:51:08;;;;;;;17.58;11.93;;;538.50;1536.00;;;;;;5094127;28;20128;-64
2021/09/16 01:53:34;;;;;;;20.88;11.65;;;538.40;1561.60;;;;;;5093719;28;20024;-64
2021/09/16 01:56:00;;;;;;;18.98;11.75;;;538.40;1536.00;;;;;;5093918;28;20062;-65
2021/09/16 01:58:25;;;;;;;16.63;11.40;;;538.50;1561.60;;;;;;5093840;28;20024;-64
2021/09/16 02:00:51;;;;;;;16.80;11.57;;;538.40;1536.00;;;;;;5093918;28;20024;-64
2021/09/16 02:03:17;;;;;;;22.60;11.35;;;538.40;1561.60;;;;;;5093888;28;20027;-65
2021/09/16 02:05:42;;;;;;;18.15;11.07;;;538.40;1561.60;;;;;;5092605;28;20043;-64
2021/09/16 02:08:08;;;;;;;15.60;11.75;;;538.40;1561.60;;;;;;5094003;28;20035;-65
2021/09/16 02:10:34;;;;;;;17.40;11.93;;;538.50;1587.20;;;;;;5093660;28;20397;-66
2021/09/16 02:12:59;;;;;;;17.70;11.45;;;538.50;1587.20;;;;;;5094158;28;20386;-65
2021/09/16 02:15:25;;;;;;;18.08;11.80;;;538.50;1587.20;;;;;;5092452;28;20063;-65
2021/09/16 02:17:51;;;;;;;21.20;12.88;;;538.50;1587.20;;;;;;5093775;28;20028;-64
2021/09/16 02:20:17;;;;;;;19.58;11.40;;;538.50;1587.20;;;;;;5094000;28;20030;-64
2021/09/16 02:22:42;;;;;;;19.05;12.35;;;563.20;1612.80;;;;;;5093623;28;20028;-64
2021/09/16 02:25:08;;;;;;;16.73;11.85;;;563.20;1638.40;;;;;;5093061;28;20063;-64
2021/09/16 02:27:34;;;;;;;19.30;12.02;;;563.20;1638.40;;;;;;5093639;28;20046;-64
2021/09/16 02:30:00;;;;;;;29.63;13.07;;;563.20;1638.40;;;;;;5093544;28;20017;-64
2021/09/16 02:32:25;;;;;;;31.60;12.80;;;563.20;1664.00;;;;;;5092982;28;20028;-65
2021/09/16 02:34:51;;;;;;;19.75;12.73;;;563.20;1715.20;;;;;;5093813;28;20053;-64
2021/09/16 02:37:17;;;;;;;15.95;12.30;;;563.20;1740.80;;;;;;5093762;28;20474;-65
2021/09/16 02:39:43;;;;;;;16.70;11.75;;;563.20;1715.20;;;;;;5093895;28;20024;-64
2021/09/16 02:42:09;;;;;;;23.13;14.38;;;563.20;1740.80;;;;;;5092522;28;20028;-64
2021/09/16 02:44:34;;;;;;;20.50;12.50;;;563.20;1715.20;;;;;;5092223;28;20378;-65
2021/09/16 02:47:00;;;;;;;18.05;12.68;;;563.20;1715.20;;;;;;5093627;28;20024;-64
2021/09/16 02:49:26;;;;;;;16.50;13.18;;;563.20;1740.80;;;;;;5093045;28;20024;-65
2021/09/16 02:51:51;;;;;;;21.88;13.98;;;563.20;1740.80;;;;;;5093564;28;20024;-65
2021/09/16 02:54:18;;;;;;;22.48;13.75;;;538.50;1740.80;;;;;;5094040;28;20400;-65
2021/09/16 02:56:44;;;;;;;19.58;13.60;;;563.20;1766.40;;;;;;5093297;28;20401;-64
2021/09/16 02:59:10;;;;;;;21.52;14.32;;;538.50;1740.80;;;;;;5092671;28;20026;-64
2021/09/16 03:01:35;;;;;;;21.55;13.82;;;538.50;1740.80;;;;;;5093185;28;20034;-66
2021/09/16 03:04:01;;;;;;;21.42;13.65;;;538.50;1740.80;;;;;;5092211;28;20036;-64
2021/09/16 03:06:27;;;;;;;25.27;13.02;;;538.50;1715.20;;;;;;5097006;28;20089;-64
2021/09/16 03:08:53;;;;;;;17.65;13.02;;;538.50;1715.20;;;;;;5095866;28;20035;-64
2021/09/16 03:11:18;;;;;;;16.30;13.18;;;538.50;1715.20;;;;;;5096820;28;20044;-65
2021/09/16 03:13:44;;;;;;;18.92;13.88;;;563.20;1740.80;;;;;;5097182;28;20457;-64
2021/09/16 03:16:10;;;;;;;21.17;13.63;;;563.20;1766.40;;;;;;5096842;28;20059;-64
2021/09/16 03:18:36;;;;;;;20.45;13.50;;;538.50;1740.80;;;;;;5097040;28;20024;-64
2021/09/16 03:21:01;;;;;;;18.42;13.95;;;538.50;1740.80;;;;;;5096887;28;20035;-64
2021/09/16 03:23:27;;;;;;;19.40;13.57;;;538.50;1740.80;;;;;;5096829;28;20107;-64
2021/09/16 03:25:53;;;;;;;20.40;14.05;;;538.50;1740.80;;;;;;5096840;28;20024;-64
2021/09/16 03:28:18;;;;;;;24.92;14.75;;;538.50;1740.80;;;;;;5096410;28;20478;-64
2021/09/16 03:30:44;;;;;;;20.40;13.43;;;538.50;1740.80;;;;;;5095319;28;20496;-65
2021/09/16 03:33:10;;;;;;;26.85;14.65;;;538.50;1740.80;;;;;;5096924;28;20035;-64
2021/09/16 03:35:36;;;;;;;21.15;14.45;;;538.40;1740.80;;;;;;5096575;28;20035;-64
2021/09/16 03:38:01;;;;;;;29.02;15.10;;;538.50;1740.80;;;;;;5095383;28;20107;-64
2021/09/16 03:40:27;;;;;;;25.63;14.90;;;538.50;1740.80;;;;;;5096600;28;20051;-64
2021/09/16 03:42:53;;;;;;;24.05;14.82;;;538.50;1766.40;;;;;;5096530;28;20067;-64
2021/09/16 03:45:19;;;;;;;27.45;15.10;;;538.50;1740.80;;;;;;5096226;28;20035;-65
2021/09/16 03:47:44;;;;;;;21.77;13.90;;;538.50;1740.80;;;;;;5096544;28;20024;-64
2021/09/16 03:50:11;;;;;;;25.65;14.75;;;538.40;1740.80;;;;;;5095218;28;20485;-65
2021/09/16 03:52:37;;;;;;;25.98;13.55;;;538.50;1740.80;;;;;;5094993;28;20047;-64
2021/09/16 03:55:05;;;;;;;20.95;13.80;;;538.50;1740.80;;;;;;5096361;28;20470;-64
2021/09/16 03:57:30;;;;;;;20.48;13.38;;;538.50;1715.20;;;;;;5096147;28;20423;-64
2021/09/16 03:59:56;;;;;;;22.13;14.05;;;538.50;1715.20;;;;;;5096208;28;20084;-64
2021/09/16 04:02:22;;;;;;;22.13;14.07;;;538.50;1689.60;;;;;;5096144;28;20020;-64
2021/09/16 04:04:48;;;;;;;24.00;14.52;;;538.50;1664.00;;;;;;5095943;28;20024;-64
2021/09/16 04:07:14;;;;;;;27.23;15.45;;;538.50;1664.00;;;;;;5095708;28;20069;-64
2021/09/16 04:09:39;;;;;;;28.08;14.48;;;538.50;1664.00;;;;;;5097118;28;20031;-67
2021/09/16 04:12:05;;;;;;;28.42;14.13;;;538.50;1664.00;;;;;;5096201;28;20028;-64
2021/09/16 04:14:31;;;;;;;32.45;15.50;;;538.40;1664.00;;;;;;5095880;28;20473;-64
2021/09/16 04:16:57;;;;;;;31.73;15.82;;;538.40;1664.00;;;;;;5095568;28;20036;-64
2021/09/16 04:19:23;;;;;;;23.35;15.05;;;538.40;1689.60;;;;;;5095532;28;20023;-64
2021/09/16 04:21:48;;;;;;;23.08;14.55;;;538.40;1715.20;;;;;;5094405;28;20090;-64
2021/09/16 04:24:16;;;;;;;30.13;15.27;;;538.40;1715.20;;;;;;5095862;28;20027;-64
2021/09/16 04:26:43;;;;;;;28.35;14.77;;;538.40;1740.80;;;;;;5095620;28;20024;-64
2021/09/16 04:29:10;;;;;;;23.98;15.35;;;538.40;1715.20;;;;;;5093795;28;20097;-64
2021/09/16 04:31:35;;;;;;;29.70;16.13;;;538.30;1740.80;;;;;;5095733;28;20024;-65
2021/09/16 04:34:01;;;;;;;26.88;15.50;;;538.30;1740.80;;;;;;5095628;28;20047;-64
2021/09/16 04:36:27;;;;;;;29.95;16.77;;;538.30;1740.80;;;;;;5095771;28;20388;-64
2021/09/16 04:38:53;;;;;;;25.67;14.88;;;538.30;1766.40;;;;;;5095579;28;20028;-64
2021/09/16 04:41:18;;;;;;;20.92;14.40;;;538.30;1766.40;;;;;;5095293;28;20381;-64
2021/09/16 04:43:44;;;;;;;34.80;17.25;;;538.20;1766.40;;;;;;5095520;28;20023;-64
2021/09/16 04:46:10;;;;;;;29.75;16.23;;;538.20;1766.40;;;;;;5095611;28;20020;-64
2021/09/16 04:48:35;;;;;;;30.40;16.60;;;538.20;1766.40;;;;;;5095278;28;20058;-64
2021/09/16 04:51:01;;;;;;;26.83;16.95;;;538.20;1766.40;;;;;;5094608;28;20058;-64
2021/09/16 04:53:27;;;;;;;30.73;16.10;;;538.30;1766.40;;;;;;5095174;28;20028;-64
2021/09/16 04:55:53;;;;;;;43.58;16.95;;;538.20;1766.40;;;;;;5095155;28;20450;-66
2021/09/16 04:58:18;;;;;;;30.10;16.00;;;538.30;1766.40;;;;;;5094464;28;20016;-65
2021/09/16 05:00:44;;;;;;;25.30;15.55;;;538.20;1740.80;;;;;;5095038;28;20021;-64
2021/09/16 05:03:10;;;;;;;29.10;17.58;;;538.30;1715.20;;;;;;5095086;28;20024;-64
2021/09/16 05:05:36;;;;;;;34.80;15.82;;;538.30;1715.20;;;;;;5095061;28;20478;-64
2021/09/16 05:08:01;;;;;;;28.35;16.65;;;538.20;1715.20;;;;;;5093596;28;20477;-64
2021/09/16 05:10:27;;;;;;;32.35;15.70;;;538.30;1715.20;;;;;;5092927;28;20092;-64
2021/09/16 05:12:53;;;;;;;31.85;16.38;;;538.20;1715.20;;;;;;5094712;28;20024;-64
2021/09/16 05:15:19;;;;;;;39.45;16.55;;;538.20;1715.20;;;;;;5093053;28;20432;-64
2021/09/16 05:17:44;;;;;;;40.40;15.93;;;538.20;1715.20;;;;;;5094819;28;20043;-64
2021/09/16 05:20:11;;;;;;;32.58;16.17;;;538.20;1740.80;;;;;;5093263;28;20026;-64
2021/09/16 05:22:36;;;;;;;34.03;17.63;;;538.20;1740.80;;;;;;5094536;28;20481;-65
2021/09/16 05:25:03;;;;;;;34.47;17.23;;;538.20;1715.20;;;;;;5094584;28;20020;-64
2021/09/16 05:27:28;;;;;;;27.10;16.20;;;538.20;1715.20;;;;;;5093878;28;20024;-64
2021/09/16 05:29:54;;;;;;;27.65;16.10;;;538.20;1740.80;;;;;;5094524;28;20465;-64
2021/09/16 05:32:20;;;;;;;29.92;15.57;;;538.20;1740.80;;;;;;5093118;28;20039;-64
2021/09/16 05:34:46;;;;;;;28.85;15.25;;;538.20;1715.20;;;;;;5094184;28;20028;-65
2021/09/16 05:37:12;;;;;;;21.48;15.77;;;538.20;1689.60;;;;;;5092636;28;20044;-64
2021/09/16 05:39:38;;;;;;;36.33;15.15;;;538.20;1689.60;;;;;;5094387;28;20024;-64
2021/09/16 05:42:04;;;;;;;28.17;15.02;;;538.20;1689.60;;;;;;5094140;28;20053;-64
2021/09/16 05:44:30;;;;;;;37.25;16.20;;;538.20;1715.20;;;;;;5092241;28;20064;-64
2021/09/16 05:46:56;;;;;;;27.13;14.65;;;538.20;1715.20;;;;;;5094170;28;20442;-65
2021/09/16 05:49:21;;;;;;;26.02;16.00;;;538.20;1715.20;;;;;;5093691;28;20031;-64
2021/09/16 05:51:47;;;;;;;33.95;15.82;;;538.20;1715.20;;;;;;5094285;28;20032;-64
2021/09/16 05:54:13;;;;;;;35.45;15.57;;;538.30;1740.80;;;;;;5093686;28;20025;-64
2021/09/16 05:56:39;;;;;;;34.00;15.75;;;538.40;1740.80;;;;;;5094059;28;20067;-64
2021/09/16 05:59:04;;;;;;;33.15;15.18;;;538.40;1740.80;;;;;;5094101;28;20055;-64
2021/09/16 06:01:30;;;;;;;36.17;15.43;;;538.40;1766.40;;;;;;5093428;28;20081;-64
2021/09/16 06:03:56;;;;;;;40.28;16.45;;;563.20;1792.00;;;;;;5093412;28;20080;-64
2021/09/16 06:06:22;;;;;;;42.30;15.88;;;538.50;1766.40;;;;;;5092049;28;20036;-64
2021/09/16 06:08:48;;;;;;;30.33;15.90;;;538.50;1766.40;;;;;;5092539;28;20046;-64
2021/09/16 06:11:13;;;;;;;34.38;15.90;;;538.50;1766.40;;;;;;5093746;28;20075;-64
2021/09/16 06:13:39;;;;;;;34.20;15.82;;;563.20;1792.00;;;;;;5093955;28;20056;-64
2021/09/16 06:16:06;;;;;;;41.00;16.25;;;563.20;1817.60;;;;;;5093852;28;20583;-64
2021/09/16 06:18:31;;;;;;;36.78;16.80;;;563.20;1817.60;;;;;;5093932;28;20046;-64
2021/09/16 06:20:57;;;;;;;37.45;16.52;;;563.20;1817.60;;;;;;5091847;28;20036;-64
2021/09/16 06:23:23;;;;;;;43.38;17.08;;;563.30;1817.60;;;;;;5093760;28;20035;-64
2021/09/16 06:25:48;;;;;;;34.25;16.40;;;563.30;1817.60;;;;;;5093915;28;20066;-65
2021/09/16 06:28:14;;;;;;;31.85;15.77;;;563.30;1817.60;;;;;;5093766;28;20373;-64
2021/09/16 06:30:40;;;;;;;29.63;16.17;;;563.40;1792.00;;;;;;5093786;28;20028;-64
2021/09/16 06:33:06;;;;;;;33.47;16.77;;;563.50;1792.00;;;;;;5093472;28;20370;-64
2021/09/16 06:35:31;;;;;;;30.83;16.58;;;563.50;1766.40;;;;;;5093788;28;20466;-64
2021/09/16 06:37:57;;;;;;;30.80;16.00;;;563.60;1792.00;;;;;;5093512;28;20036;-64
2021/09/16 06:40:23;;;;;;;30.33;15.95;;;563.60;1766.40;;;;;;5097966;28;20024;-64
2021/09/16 06:42:49;;;;;;;24.40;16.13;;;563.60;1766.40;;;;;;5097623;28;20016;-64
2021/09/16 06:45:15;;;;;;;31.77;16.98;;;563.70;1766.40;;;;;;5097489;28;20031;-68
2021/09/16 06:47:41;;;;;;;24.80;15.18;;;563.70;1766.40;;;;;;5097717;28;20024;-64
2021/09/16 06:50:07;;;;;;;25.77;15.15;;;563.80;1740.80;;;;;;5098039;28;20024;-66
2021/09/16 06:52:33;;;;;;;33.92;15.60;;;563.80;1766.40;;;;;;5097628;28;20024;-64
2021/09/16 06:54:59;;;;;;;31.63;14.50;;;563.90;1740.80;;;;;;5097399;28;20016;-63
2021/09/16 06:57:24;;;;;;;28.48;15.68;;;563.90;1740.80;;;;;;5096896;28;20044;-63
2021/09/16 06:59:50;;;;;;;32.65;15.60;;;564.00;1740.80;;;;;;5097282;28;20028;-63
2021/09/16 07:02:16;;;;;;;31.10;16.75;;;564.00;1766.40;;;;;;5096482;28;20024;-64
2021/09/16 07:04:42;;;;;;;27.67;16.38;;;564.10;1740.80;;;;;;5097035;28;20149;-64
2021/09/16 07:07:08;;;;;;;34.40;17.63;;;564.10;1740.80;;;;;;5097352;28;20374;-66
2021/09/16 07:09:34;;;;;;;26.33;16.35;;;588.80;1715.20;;;;;;5096776;28;20816;-69
2021/09/16 07:12:00;;;;;;;23.00;15.07;;;588.90;1715.20;;;;;;5096837;28;20493;-63
2021/09/16 07:14:26;;;;;;;29.88;16.00;;;589.00;1689.60;;;;;;5096996;28;20062;-63
2021/09/16 07:16:53;;;;;;;33.13;15.35;;;589.00;1689.60;;;;;;5096942;28;20060;-64
2021/09/16 07:19:19;;;;;;;45.53;15.82;;;589.10;1664.00;;;;;;5095683;28;20110;-63
2021/09/16 07:21:45;;;;;;;55.03;17.00;;;589.20;1664.00;;;;;;5096639;28;20060;-64
2021/09/16 07:24:13;;;;;;;43.13;14.68;;;589.20;1664.00;;;;;;5096721;28;20031;-63
2021/09/16 07:26:39;;;;;;;46.20;16.10;;;589.20;1638.40;;;;;;5095341;28;20386;-65
2021/09/16 07:29:05;;;;;;;57.70;14.63;;;589.30;1638.40;;;;;;5096590;28;20028;-64
2021/09/16 07:31:31;;;;;;;31.38;13.88;;;589.30;1638.40;;;;;;5095953;28;20110;-64
2021/09/16 07:33:57;;;;;;;31.15;14.90;;;589.40;1664.00;;;;;;5096384;28;20020;-64
2021/09/16 07:36:23;;;;;;;30.35;14.45;;;589.40;1664.00;;;;;;5096579;28;20059;-64
2021/09/16 07:38:49;;;;;;;28.48;14.27;;;589.50;1638.40;;;;;;5096582;28;20469;-65
2021/09/16 07:41:15;;;;;;;30.48;15.38;;;589.50;1638.40;;;;;;5096366;28;20430;-64
2021/09/16 07:43:42;;;;;;;22.92;14.13;;;589.60;1664.00;;;;;;5096458;28;20026;-66
2021/09/16 07:46:07;;;;;;;21.60;13.88;;;589.70;1638.40;;;;;;5095559;28;20462;-65
2021/09/16 07:48:33;;;;;;;23.92;14.93;;;614.40;1612.80;;;;;;5094619;28;20035;-64
2021/09/16 07:50:59;;;;;;;21.40;15.25;;;614.40;1612.80;;;;;;5095239;28;20081;-67
2021/09/16 07:53:27;;;;;;;28.10;14.23;;;614.50;1612.80;;;;;;5095669;28;20454;-64
2021/09/16 07:55:53;;;;;;;35.03;15.45;;;614.50;1612.80;;;;;;5095715;28;20032;-64
2021/09/16 07:58:19;;;;;;;32.72;14.55;;;614.60;1612.80;;;;;;5092902;28;20028;-64
2021/09/16 08:00:46;;;;;;;29.45;15.93;;;614.60;1612.80;;;;;;5095393;28;20024;-64
2021/09/16 08:03:11;;;;;;;28.25;14.77;;;614.70;1612.80;;;;;;5095555;28;20103;-65
2021/09/16 08:05:37;;;;;;;25.77;13.57;;;614.80;1612.80;;;;;;5095560;28;20103;-64
2021/09/16 08:08:03;;;;;;;28.13;14.00;;;614.90;1612.80;;;;;;5095590;28;20047;-63
2021/09/16 08:10:29;;;;;;;22.73;13.55;;;615.00;1612.80;;;;;;5093311;28;20044;-63
2021/09/16 08:12:55;;;;;;;23.80;13.88;;;615.10;1612.80;;;;;;5094630;28;20031;-63
2021/09/16 08:15:20;;;;;;;33.15;14.93;;;615.20;1587.20;;;;;;5094933;28;20020;-63
2021/09/16 08:17:46;;;;;;;28.10;15.15;;;640.00;1561.60;;;;;;5094633;28;20477;-66
2021/09/16 08:20:13;;;;;;;25.63;13.70;;;640.20;1536.00;;;;;;5094304;28;20035;-65
2021/09/16 08:22:38;;;;;;;23.92;12.32;;;640.20;1715.20;;;;;;5094517;28;20086;-63
2021/09/16 08:25:08;;;;;;;23.23;12.43;;;640.50;1536.00;;;;;;5094517;28;20394;-67
2021/09/16 08:27:35;;;;;;;24.23;12.23;;;640.70;1510.40;;;;;;5092757;28;20039;-63
2021/09/16 08:30:01;;;;;;;21.02;9.80;;;640.80;1510.40;;;;;;5094366;28;20065;-64
2021/09/16 08:32:26;;;;;;;15.38;7.85;;;640.90;1408.00;;;;;;5094463;28;20098;-63
2021/09/16 08:34:52;;;;;;;19.60;6.68;;;665.60;1382.40;;;;;;5092887;28;20026;-64
2021/09/16 08:37:18;;;;;;;19.23;6.55;;;665.70;1356.80;;;;;;5093087;28;20562;-64
2021/09/16 08:39:44;;;;;;;14.77;6.60;;;665.80;1331.20;;;;;;5094222;28;20036;-64
2021/09/16 08:42:10;;;;;;;19.13;6.60;;;665.80;1305.60;;;;;;5094041;28;20484;-65
2021/09/16 08:44:36;;;;;;;15.55;6.65;;;665.90;1280.00;;;;;;5093874;28;20442;-71
2021/09/16 08:47:02;;;;;;;18.00;6.80;;;666.00;1280.00;;;;;;5092060;28;20118;-64
2021/09/16 08:49:28;;;;;;;13.18;5.78;;;666.00;1254.40;;;;;;5093567;28;20103;-64
2021/09/16 08:51:55;;;;;;;21.00;6.13;;;666.10;1228.80;;;;;;5092453;28;20062;-63
2021/09/16 08:54:21;;;;;;;11.05;6.05;;;666.20;1228.80;;;;;;5093340;28;20024;-64
2021/09/16 08:56:48;;;;;;;16.65;5.95;;;666.30;1203.20;;;;;;5091326;28;20048;-64
2021/09/16 08:59:13;;;;;;;15.88;5.70;;;666.40;1203.20;;;;;;5093764;28;20481;-63
2021/09/16 09:01:40;;;;;;;15.32;5.32;;;691.20;1152.00;;;;;;5092597;28;20032;-63
2021/09/16 09:04:06;;;;;;;14.50;5.28;;;691.30;1152.00;;;;;;5093365;28;20095;-64
2021/09/16 09:06:36;;;;;;;26.88;7.03;;;691.40;1126.40;;;;;;5093501;28;20107;-64
2021/09/16 09:09:21;;;;;;;15.73;6.00;;;691.50;1126.40;;;;;;5094782;28;20020;-64
2021/09/16 09:12:00;;;;;;;12.82;5.50;;;691.50;1152.00;;;;;;5093482;28;20131;-63
2021/09/16 09:14:34;;;;;;;16.50;6.20;;;691.60;1126.40;;;;;;5093463;28;20492;-63
2021/09/16 09:17:02;;;;;;;24.13;5.72;;;691.70;1126.40;;;;;;5094560;28;20062;-63
2021/09/16 09:19:29;;;;;;;17.42;5.75;;;691.70;1126.40;;;;;;5094457;28;20053;-63
2021/09/16 09:22:02;;;;;;;17.95;5.93;;;691.80;1100.80;;;;;;5094694;28;20031;-65
2021/09/16 09:24:37;;;;;;;20.95;6.22;;;691.90;1126.40;;;;;;5094571;28;20028;-64
2021/09/16 09:27:24;;;;;;;17.08;5.72;;;692.00;1126.40;;;;;;5093763;28;20020;-63
2021/09/16 09:30:13;;;;;;;20.75;5.60;;;716.80;1126.40;;;;;;5095290;28;20054;-66
2021/09/16 09:32:55;;;;;;;61.50;7.07;;;717.10;1100.80;;;;;;5094478;28;20024;-63
2021/09/16 09:35:29;;;;;;;31.10;6.35;;;717.20;1100.80;;;;;;5094168;28;20052;-63
2021/09/16 09:37:56;;;;;;;32.78;7.18;;;717.30;1100.80;;;;;;5094211;28;20047;-64
2021/09/16 09:40:29;;;;;;;38.22;6.88;;;717.50;1100.80;;;;;;5093979;28;20017;-63
2021/09/16 09:42:56;;;;;;;28.38;6.95;;;717.70;1049.60;;;;;;5094156;28;20031;-63
2021/09/16 09:45:22;;;;;;;20.90;6.47;;;742.50;1075.20;;;;;;5094255;28;20016;-63
2021/09/16 09:47:49;;;;;;;32.83;7.07;;;742.50;1100.80;;;;;;5093953;28;20396;-64
2021/09/16 09:50:24;;;;;;;24.95;6.15;;;742.60;1126.40;;;;;;5093919;28;20024;-72
2021/09/16 09:52:51;;;;;;;22.08;5.60;;;742.80;1049.60;;;;;;5094307;28;20107;-63
2021/09/16 09:55:20;;;;;;;30.83;6.07;;;742.90;1049.60;;;;;;5094070;28;20021;-69
2021/09/16 09:57:46;;;;;;;25.60;5.40;;;743.00;1049.60;;;;;;5092760;28;20032;-63
2021/09/16 10:00:16;;;;;;;38.92;7.78;;;743.10;1024.00;;;;;;5094046;28;20375;-63
2021/09/16 10:02:43;;;;;;;18.98;6.22;;;743.10;1024.00;;;;;;5092413;28;20067;-63
2021/09/16 10:05:29;;;;;;;30.80;6.15;;;743.10;1024.00;;;;;;5094016;28;20016;-63
2021/09/16 10:07:57;;;;;;;32.55;6.45;;;743.20;998.40;;;;;;5092494;28;20119;-63
2021/09/16 10:10:24;;;;;;;28.23;7.05;;;743.20;1024.00;;;;;;5093790;28;20123;-63
2021/09/16 10:12:53;;;;;;;36.08;6.78;;;743.20;1024.00;;;;;;5092276;28;20035;-63
2021/09/16 10:15:21;;;;;;;31.25;6.25;;;743.30;1024.00;;;;;;5093850;28;20023;-63
2021/09/16 10:17:50;;;;;;;26.23;6.28;;;768.00;1024.00;;;;;;5093330;28;20028;-63
2021/09/16 10:20:18;;;;;;;23.45;5.65;;;768.10;1024.00;;;;;;5093712;28;20032;-63
2021/09/16 10:22:52;;;;;;;36.83;6.05;;;768.10;1024.00;;;;;;5093810;28;20077;-63
2021/09/16 10:25:23;;;;;;;28.52;6.13;;;768.20;1024.00;;;;;;5094026;28;20119;-63
2021/09/16 10:27:55;;;;;;;23.23;5.85;;;768.40;998.40;;;;;;5093802;28;20020;-63
2021/09/16 10:30:24;;;;;;;29.40;5.90;;;768.50;1024.00;;;;;;5094091;28;20366;-63
2021/09/16 10:33:36;;;;;;;23.55;5.80;;;768.50;1024.00;;;;;;5091904;28;20058;-63
2021/09/16 10:36:08;;;;;;;25.30;5.63;;;768.60;1024.00;;;;;;5011735;28;20046;-64
2021/09/16 10:38:53;;;;;;;24.48;5.45;;;768.80;998.40;;;;;;5011415;28;20537;-64
2021/09/16 10:41:29;;;;;;;35.60;6.68;;;768.90;972.80;;;;;;5011579;28;20041;-63
2021/09/16 10:43:58;;;;;;;40.90;6.30;;;793.60;998.40;;;;;;5011337;28;20121;-63
2021/09/16 10:46:26;;;;;;;31.27;7.00;;;793.60;998.40;;;;;;5011725;28;20026;-63
2021/09/16 10:48:52;;;;;;;27.98;5.75;;;793.60;998.40;;;;;;5011798;28;20022;-63
2021/09/16 10:51:41;;;;;;;28.13;5.50;;;793.60;972.80;;;;;;5011667;28;20466;-63
2021/09/16 10:54:27;;;;;;;27.80;7.18;;;793.60;972.80;;;;;;5011539;28;20352;-63
2021/09/16 10:57:06;;;;;;;42.65;7.05;;;793.60;998.40;;;;;;5011454;28;20084;-63
2021/09/16 10:59:50;;;;;;;34.70;7.57;;;793.60;972.80;;;;;;4994068;28;20030;-63
2021/09/16 11:02:48;;;;;;;39.53;7.85;;;793.70;947.20;;;;;;5011637;28;20462;-63
2021/09/16 11:05:21;;;;;;;35.95;6.28;;;793.80;947.20;;;;;;5011416;28;20554;-63
2021/09/16 11:07:52;;;;;;;25.58;7.20;;;794.00;947.20;;;;;;5011628;28;20030;-63
2021/09/16 11:10:20;;;;;;;26.42;6.47;;;794.00;972.80;;;;;;5062713;28;20119;-63
2021/09/16 11:12:50;;;;;;;42.15;6.75;;;794.00;972.80;;;;;;5091813;28;20032;-63
2021/09/16 11:15:28;;;;;;;39.05;8.18;;;794.10;972.80;;;;;;5092071;28;20028;-62
2021/09/16 11:18:16;;;;;;;30.10;7.25;;;794.10;947.20;;;;;;5087137;28;20039;-62
2021/09/16 11:20:45;;;;;;;34.85;6.55;;;794.20;947.20;;;;;;5093613;28;20417;-63
2021/09/16 11:23:13;;;;;;;30.33;7.20;;;794.20;947.20;;;;;;5093500;28;20426;-62
2021/09/16 11:25:40;;;;;;;23.48;6.07;;;794.20;947.20;;;;;;5093112;28;20028;-62
2021/09/16 11:28:07;;;;;;;44.50;8.85;;;794.20;921.60;;;;;;5097009;28;20051;-63
2021/09/16 11:30:35;;;;;;;35.08;7.82;;;794.30;921.60;;;;;;5096814;28;20020;-63
2021/09/16 11:33:15;;;;;;;29.05;7.45;;;794.30;921.60;;;;;;5096983;28;20080;-63
2021/09/16 11:35:41;;;;;;;32.72;7.43;;;794.30;921.60;;;;;;5096847;28;20107;-62
2021/09/16 11:38:09;;;;;;;35.65;9.00;;;794.30;921.60;;;;;;5096702;28;20111;-63
2021/09/16 11:40:37;;;;;;;39.65;8.13;;;794.30;921.60;;;;;;5096395;28;20028;-63
2021/09/16 11:43:06;;;;;;;35.47;8.75;;;794.30;921.60;;;;;;5096623;28;20023;-63
2021/09/16 11:45:42;;;;;;;26.38;8.20;;;794.30;921.60;;;;;;5096748;28;20047;-63
2021/09/16 11:48:17;;;;;;;41.08;9.52;;;794.40;921.60;;;;;;5096719;28;20016;-63
2021/09/16 11:50:45;;;;;;;37.65;8.68;;;794.50;921.60;;;;;;5096334;28;20032;-63
2021/09/16 11:53:26;;;;;;;28.88;8.43;;;819.20;921.60;;;;;;5096186;28;20525;-62
2021/09/16 11:56:01;;;;;;;28.40;6.35;;;794.50;921.60;;;;;;5096912;28;20109;-63
2021/09/16 11:58:31;;;;;;;41.22;7.18;;;819.20;921.60;;;;;;5096319;28;20024;-62
2021/09/16 12:01:03;;;;;;;38.92;8.00;;;794.50;896.00;;;;;;5096572;28;20130;-62
2021/09/16 12:03:33;;;;;;;36.55;6.85;;;794.50;896.00;;;;;;5096387;28;20174;-63
2021/09/16 12:06:16;;;;;;;40.20;7.97;;;794.40;896.00;;;;;;5096272;28;20472;-63